KMHS

Mount Shasta Airport

Mount Shasta, California, USA
METAR KMHS 180756Z AUTO VRB03KT 7SM CLR M02/M03 A3018 RMK AO2 SLP254 T10171033 400831022
Observed Flight Rules
Dec-18 @ 07:56 UTC (58 minutes ago) Visual Flight Rules
Wind Visibility Clouds
Variable at 3 knots 7 miles
  • Clear skies
Temperatures Readings
Current -2°C / 28°F
Dewpoint -3°C / 27°F
Humidity 93%
Altimeter 30.18" Hg
Pressure 1025.4 hPa
Elevation 1078
METAR KMHS 180756Z AUTO VRB03KT 7SM CLR M02/M03 A3018 RMK AO2 SLP254 T10171033 400831022
Observed Flight Rules
Dec-18 @ 07:56 UTC
(58 minutes ago)
VFR
Wind Visibility
Variable at 3 knots 7 miles
Clouds
  • Clear skies
Temperature Dewpoint
-2°C / 28°F -3°C / 27°F
Humidity Altimeter Pressure
93% 30.18" Hg 1025.4 hPa